createdAt,value
2018-07-17T00:00:26.735Z,70.9
2018-07-17T00:01:26.070Z,72.5
2018-07-17T00:02:25.416Z,72.1
2018-07-17T00:03:24.748Z,72.6
2018-07-17T00:04:23.868Z,71.9
2018-07-17T00:05:23.103Z,71.7
2018-07-17T00:06:22.434Z,71.4
2018-07-17T00:07:21.761Z,71.9
2018-07-17T00:08:21.387Z,73
2018-07-17T00:09:20.723Z,71.6
2018-07-17T00:10:19.867Z,71.6
2018-07-17T00:11:19.565Z,71.6
2018-07-17T00:12:18.394Z,71.2
2018-07-17T00:13:18.230Z,71
2018-07-17T00:14:19.091Z,71
2018-07-17T00:15:16.811Z,70.9
2018-07-17T00:16:16.032Z,71.1
2018-07-17T00:17:15.150Z,71
2018-07-17T00:18:14.586Z,71.3
2018-07-17T00:18:45.222Z,71.3
2018-07-17T00:20:13.275Z,71.5
2018-07-17T00:21:12.716Z,71.8
2018-07-17T00:22:12.047Z,72.3
2018-07-17T00:24:11.092Z,71.4
2018-07-17T00:25:09.923Z,71.7
2018-07-17T00:26:09.151Z,71.9
2018-07-17T00:27:08.781Z,73
2018-07-17T00:28:08.047Z,72.2
2018-07-17T00:29:07.383Z,72
2018-07-17T00:30:06.715Z,72.6
2018-07-17T00:31:06.057Z,71.8
2018-07-17T00:32:05.394Z,72.3
2018-07-17T00:33:05.014Z,73.3
2018-07-17T00:34:04.029Z,72.8
2018-07-17T00:34:34.355Z,72.8
2018-07-17T00:35:04.897Z,67.4
2018-07-17T00:36:02.701Z,69
2018-07-17T00:37:02.449Z,70.5
2018-07-17T00:38:01.459Z,69.7
2018-07-17T00:39:00.714Z,70
2018-07-17T00:40:00.440Z,71.2
2018-07-17T00:40:59.894Z,70.5
2018-07-17T00:41:59.029Z,67.7
2018-07-17T00:42:58.370Z,67.4
2018-07-17T00:43:57.589Z,69.5
2018-07-17T00:44:56.998Z,70.3
2018-07-17T00:45:56.220Z,69.8
2018-07-17T00:46:55.649Z,69.5
2018-07-17T00:47:54.762Z,69.6
2018-07-17T00:48:54.091Z,69.9
2018-07-17T00:49:53.515Z,70.1
2018-07-17T00:50:52.951Z,70.5
2018-07-17T00:51:52.273Z,70.6
2018-07-17T00:52:51.787Z,68.7
2018-07-17T00:53:51.013Z,66.5
2018-07-17T00:54:54.422Z,68.9
2018-07-17T00:55:49.344Z,68.9
2018-07-17T00:56:49.180Z,69.1
2018-07-17T00:57:48.115Z,69.3
2018-07-17T00:58:47.552Z,69.2
2018-07-17T00:59:17.803Z,69.2
2018-07-17T00:59:48.235Z,69.4
2018-07-17T01:00:18.776Z,69.4
2018-07-17T01:01:45.782Z,70
2018-07-17T01:02:45.000Z,70.2
2018-07-17T01:03:44.513Z,70.1
2018-07-17T01:04:43.845Z,69.9
2018-07-17T01:05:43.120Z,70.2
2018-07-17T01:06:42.451Z,70.3
2018-07-17T01:07:41.772Z,70.4
2018-07-17T01:08:42.198Z,70.3
2018-07-17T01:09:40.202Z,70.7
2018-07-17T01:10:39.532Z,70.5
2018-07-17T01:11:10.071Z,70.5
2018-07-17T01:12:38.618Z,71
2018-07-17T01:13:08.759Z,71
2018-07-17T01:13:39.408Z,71
2018-07-17T01:14:37.642Z,71.2
2018-07-17T01:15:36.368Z,71.1
2018-07-17T01:16:35.751Z,71.1
2018-07-17T01:17:35.084Z,71.3
2018-07-17T01:18:34.457Z,71.8
2018-07-17T01:19:33.914Z,71.8
2018-07-17T01:20:32.870Z,72
2018-07-17T01:21:32.203Z,72.5
2018-07-17T01:23:30.813Z,72.5
2018-07-17T01:24:30.136Z,72.6
2018-07-17T01:25:29.873Z,72.4
2018-07-17T01:27:33.623Z,72.8
2018-07-17T01:28:27.519Z,72.6
2018-07-17T01:29:27.139Z,73.6
2018-07-17T01:30:26.885Z,73.3
2018-07-17T01:31:25.714Z,73.2
2018-07-17T01:32:25.044Z,73.3
2018-07-17T01:33:24.480Z,73.3
2018-07-17T01:34:23.918Z,74.4
2018-07-17T01:35:23.252Z,74.6
2018-07-17T01:36:22.580Z,74.6
2018-07-17T01:37:21.987Z,74
2018-07-17T01:37:52.015Z,74
2018-07-17T01:38:22.701Z,73.5
2018-07-17T01:39:20.443Z,74.1
2018-07-17T01:40:19.783Z,74.3
2018-07-17T01:41:19.222Z,74
2018-07-17T01:42:18.047Z,74
2018-07-17T01:43:17.884Z,72.7
2018-07-17T01:44:16.815Z,72.2
2018-07-17T01:45:16.248Z,73.8
2018-07-17T01:46:15.691Z,72.6
2018-07-17T01:47:21.963Z,72.7
2018-07-17T01:48:14.312Z,72.9
2018-07-17T01:48:44.949Z,72.9
2018-07-17T01:49:15.291Z,71.9
2018-07-17T01:50:12.714Z,72
2018-07-17T01:51:12.150Z,72
2018-07-17T01:52:11.708Z,72.4
2018-07-17T01:53:11.047Z,72.3
2018-07-17T01:54:10.372Z,72.7
2018-07-17T01:56:08.991Z,72.4
2018-07-17T01:57:08.107Z,73.1
2018-07-17T01:57:38.525Z,73.1
2018-07-17T01:58:09.061Z,72.6
2018-07-17T01:59:06.781Z,73.4
2018-07-17T02:00:06.112Z,72.1
2018-07-17T02:01:05.436Z,73.4
2018-07-17T02:02:04.674Z,72.8
2018-07-17T02:03:03.895Z,72.7
2018-07-17T02:04:06.591Z,73.4
2018-07-17T02:05:02.798Z,72.9
2018-07-17T02:06:02.247Z,72.5
2018-07-17T02:07:01.394Z,73.6
2018-07-17T02:08:00.466Z,73.9
2018-07-17T02:08:59.958Z,73.6
2018-07-17T02:09:59.415Z,73.7
2018-07-17T02:10:58.850Z,73.5
2018-07-17T02:11:57.971Z,73.6
2018-07-17T02:12:57.306Z,73.5
2018-07-17T02:13:56.532Z,73.7
2018-07-17T02:14:55.859Z,73.4
2018-07-17T02:15:55.190Z,73.4
2018-07-17T02:16:54.419Z,73.7
2018-07-17T02:17:55.912Z,74.8
2018-07-17T02:18:53.440Z,75
2018-07-17T02:19:52.439Z,74.8
2018-07-17T02:20:52.053Z,75.2
2018-07-17T02:21:51.174Z,74.7
2018-07-17T02:22:50.513Z,74.8
2018-07-17T02:23:49.742Z,74.6
2018-07-17T02:24:49.128Z,75.2
2018-07-17T02:25:48.462Z,75.6
2018-07-17T02:26:47.793Z,75
2018-07-17T02:27:47.235Z,74.7
2018-07-17T02:28:46.698Z,74.1
2018-07-17T02:29:45.919Z,72.5
2018-07-17T02:30:16.451Z,72.5
2018-07-17T02:30:47.098Z,71.5
2018-07-17T02:31:17.559Z,71.5
2018-07-17T02:31:47.816Z,72.1
2018-07-17T02:32:18.461Z,72.1
2018-07-17T02:33:43.285Z,72.2
2018-07-17T02:34:42.232Z,72.9
2018-07-17T02:35:41.969Z,72
2018-07-17T02:36:41.197Z,70.2
2018-07-17T02:37:40.184Z,71.7
2018-07-17T02:38:39.814Z,71.1
2018-07-17T02:39:38.941Z,70.8
2018-07-17T02:40:38.594Z,71.5
2018-07-17T02:41:37.537Z,71.3
2018-07-17T02:42:36.972Z,70.4
2018-07-17T02:43:36.211Z,71.6
2018-07-17T02:44:35.350Z,71.5
2018-07-17T02:45:35.078Z,71.6
2018-07-17T02:46:34.412Z,71.3
2018-07-17T02:47:33.745Z,71
2018-07-17T02:48:33.095Z,71.6
2018-07-17T02:49:03.752Z,71.6
2018-07-17T02:49:34.004Z,71.5
2018-07-17T02:50:04.552Z,71.5
2018-07-17T02:51:31.084Z,73
2018-07-17T02:52:30.020Z,73.2
2018-07-17T02:53:29.361Z,72.8
2018-07-17T02:54:28.982Z,72.5
2018-07-17T02:55:28.432Z,73.1
2018-07-17T02:56:27.767Z,72.6
2018-07-17T02:57:26.995Z,72.7
2018-07-17T02:58:26.113Z,72.8
2018-07-17T02:59:25.477Z,72.8
